sensor_id;sensor_type;location;lat;lon;timestamp;pressure;altitude;pressure_sealevel;temperature;humidity
15529;BME280;7866;52.280;9.500;2024-01-30T00:01:49;101514.38;;;7.95;79.23
15529;BME280;7866;52.280;9.500;2024-01-30T00:06:52;101524.91;;;7.96;78.52
15529;BME280;7866;52.280;9.500;2024-01-30T00:11:54;101515.00;;;7.87;78.78
15529;BME280;7866;52.280;9.500;2024-01-30T00:16:55;101515.59;;;7.90;78.05
15529;BME280;7866;52.280;9.500;2024-01-30T00:22:00;101516.69;;;7.88;78.67
15529;BME280;7866;52.280;9.500;2024-01-30T00:27:02;101514.63;;;7.80;78.02
15529;BME280;7866;52.280;9.500;2024-01-30T00:32:04;101529.91;;;7.67;80.04
15529;BME280;7866;52.280;9.500;2024-01-30T00:37:07;101520.06;;;7.45;80.61
15529;BME280;7866;52.280;9.500;2024-01-30T00:42:09;101514.28;;;7.51;82.49
15529;BME280;7866;52.280;9.500;2024-01-30T00:47:11;101522.88;;;7.55;81.79
15529;BME280;7866;52.280;9.500;2024-01-30T00:52:14;101509.91;;;7.50;80.49
15529;BME280;7866;52.280;9.500;2024-01-30T00:57:16;101507.84;;;7.76;81.31
15529;BME280;7866;52.280;9.500;2024-01-30T01:02:17;101508.69;;;7.77;80.83
15529;BME280;7866;52.280;9.500;2024-01-30T01:07:20;101511.34;;;7.65;80.31
15529;BME280;7866;52.280;9.500;2024-01-30T01:12:22;101518.88;;;7.72;80.30
15529;BME280;7866;52.280;9.500;2024-01-30T01:17:24;101519.25;;;7.67;81.33
15529;BME280;7866;52.280;9.500;2024-01-30T01:22:27;101514.38;;;7.83;81.78
15529;BME280;7866;52.280;9.500;2024-01-30T01:27:29;101513.31;;;7.63;81.02
15529;BME280;7866;52.280;9.500;2024-01-30T01:32:32;101521.16;;;7.65;82.10
15529;BME280;7866;52.280;9.500;2024-01-30T01:37:35;101521.41;;;7.62;81.46
15529;BME280;7866;52.280;9.500;2024-01-30T01:42:36;101520.81;;;7.58;81.77
15529;BME280;7866;52.280;9.500;2024-01-30T01:47:38;101511.34;;;7.65;82.06
15529;BME280;7866;52.280;9.500;2024-01-30T01:52:41;101501.91;;;7.95;81.33
15529;BME280;7866;52.280;9.500;2024-01-30T01:57:43;101484.81;;;7.75;81.16
15529;BME280;7866;52.280;9.500;2024-01-30T02:02:46;101488.19;;;7.77;81.64
15529;BME280;7866;52.280;9.500;2024-01-30T02:07:50;101485.53;;;7.77;82.66
15529;BME280;7866;52.280;9.500;2024-01-30T02:12:51;101476.69;;;7.77;83.14
15529;BME280;7866;52.280;9.500;2024-01-30T02:17:53;101474.00;;;7.88;82.07
15529;BME280;7866;52.280;9.500;2024-01-30T02:22:58;101463.81;;;7.82;82.24
15529;BME280;7866;52.280;9.500;2024-01-30T02:28:01;101459.84;;;7.54;81.99
15529;BME280;7866;52.280;9.500;2024-01-30T02:33:03;101451.84;;;7.65;83.43
15529;BME280;7866;52.280;9.500;2024-01-30T02:38:06;101450.78;;;7.68;82.30
15529;BME280;7866;52.280;9.500;2024-01-30T02:43:08;101449.41;;;7.73;83.48
15529;BME280;7866;52.280;9.500;2024-01-30T02:48:09;101444.34;;;7.70;83.84
15529;BME280;7866;52.280;9.500;2024-01-30T02:53:13;101439.88;;;7.71;83.75
15529;BME280;7866;52.280;9.500;2024-01-30T02:58:14;101440.25;;;7.66;83.99
15529;BME280;7866;52.280;9.500;2024-01-30T03:03:16;101436.09;;;7.62;84.28
15529;BME280;7866;52.280;9.500;2024-01-30T03:08:19;101432.97;;;7.57;83.65
15529;BME280;7866;52.280;9.500;2024-01-30T03:13:21;101431.97;;;7.58;83.69
15529;BME280;7866;52.280;9.500;2024-01-30T03:18:24;101431.66;;;7.51;82.87
15529;BME280;7866;52.280;9.500;2024-01-30T03:23:27;101426.91;;;7.44;82.14
15529;BME280;7866;52.280;9.500;2024-01-30T03:28:28;101428.25;;;7.27;82.10
15529;BME280;7866;52.280;9.500;2024-01-30T03:33:30;101431.84;;;6.92;82.40
15529;BME280;7866;52.280;9.500;2024-01-30T03:38:33;101421.94;;;6.83;83.81
15529;BME280;7866;52.280;9.500;2024-01-30T03:43:34;101419.81;;;6.64;84.50
15529;BME280;7866;52.280;9.500;2024-01-30T03:48:36;101421.56;;;6.41;85.40
15529;BME280;7866;52.280;9.500;2024-01-30T03:53:39;101417.66;;;6.34;85.82
15529;BME280;7866;52.280;9.500;2024-01-30T03:58:41;101418.91;;;6.17;86.12
15529;BME280;7866;52.280;9.500;2024-01-30T04:03:42;101418.47;;;6.23;86.57
15529;BME280;7866;52.280;9.500;2024-01-30T04:08:46;101409.66;;;6.34;87.15
15529;BME280;7866;52.280;9.500;2024-01-30T04:13:48;101407.78;;;6.82;85.96
15529;BME280;7866;52.280;9.500;2024-01-30T04:18:50;101420.94;;;6.37;85.62
15529;BME280;7866;52.280;9.500;2024-01-30T04:23:54;101408.50;;;6.14;85.21
15529;BME280;7866;52.280;9.500;2024-01-30T04:28:55;101408.69;;;6.24;86.54
15529;BME280;7866;52.280;9.500;2024-01-30T04:33:57;101412.22;;;5.87;85.92
15529;BME280;7866;52.280;9.500;2024-01-30T04:39:00;101405.72;;;5.67;86.01
15529;BME280;7866;52.280;9.500;2024-01-30T04:44:01;101415.41;;;5.56;87.89
15529;BME280;7866;52.280;9.500;2024-01-30T04:49:03;101412.56;;;5.33;87.05
15529;BME280;7866;52.280;9.500;2024-01-30T04:54:06;101408.34;;;5.31;87.97
15529;BME280;7866;52.280;9.500;2024-01-30T04:59:08;101403.78;;;5.20;89.43
15529;BME280;7866;52.280;9.500;2024-01-30T05:04:10;101403.47;;;5.12;88.95
15529;BME280;7866;52.280;9.500;2024-01-30T05:09:13;101405.81;;;5.16;89.69
15529;BME280;7866;52.280;9.500;2024-01-30T05:14:14;101399.00;;;5.12;89.05
15529;BME280;7866;52.280;9.500;2024-01-30T05:19:16;101405.50;;;5.08;89.42
15529;BME280;7866;52.280;9.500;2024-01-30T05:24:20;101410.38;;;5.02;89.41
15529;BME280;7866;52.280;9.500;2024-01-30T05:29:22;101411.03;;;4.92;88.96
15529;BME280;7866;52.280;9.500;2024-01-30T05:34:23;101403.28;;;4.77;89.72
15529;BME280;7866;52.280;9.500;2024-01-30T05:39:26;101397.22;;;4.75;90.44
15529;BME280;7866;52.280;9.500;2024-01-30T05:44:28;101398.38;;;4.70;89.88
15529;BME280;7866;52.280;9.500;2024-01-30T05:49:29;101399.84;;;4.62;89.72
15529;BME280;7866;52.280;9.500;2024-01-30T05:54:32;101392.00;;;4.60;90.42
15529;BME280;7866;52.280;9.500;2024-01-30T05:59:34;101395.72;;;4.58;90.26
15529;BME280;7866;52.280;9.500;2024-01-30T06:04:36;101388.84;;;4.55;89.55
15529;BME280;7866;52.280;9.500;2024-01-30T06:09:39;101384.47;;;4.54;89.72
15529;BME280;7866;52.280;9.500;2024-01-30T06:14:41;101380.75;;;4.57;91.10
15529;BME280;7866;52.280;9.500;2024-01-30T06:19:43;101383.41;;;4.44;90.21
15529;BME280;7866;52.280;9.500;2024-01-30T06:24:46;101380.84;;;4.42;90.49
15529;BME280;7866;52.280;9.500;2024-01-30T06:29:48;101383.19;;;4.47;90.83
15529;BME280;7866;52.280;9.500;2024-01-30T06:34:50;101375.25;;;4.47;90.91
15529;BME280;7866;52.280;9.500;2024-01-30T06:39:53;101379.06;;;4.43;90.53
15529;BME280;7866;52.280;9.500;2024-01-30T06:44:55;101370.75;;;4.35;90.99
15529;BME280;7866;52.280;9.500;2024-01-30T06:49:56;101368.09;;;4.35;91.30
15529;BME280;7866;52.280;9.500;2024-01-30T06:54:59;101370.16;;;4.44;91.02
15529;BME280;7866;52.280;9.500;2024-01-30T07:00:01;101371.31;;;4.40;91.21
15529;BME280;7866;52.280;9.500;2024-01-30T07:05:03;101370.53;;;4.38;90.61
15529;BME280;7866;52.280;9.500;2024-01-30T07:10:07;101369.50;;;4.53;90.37
15529;BME280;7866;52.280;9.500;2024-01-30T07:15:10;101369.72;;;4.50;91.01
15529;BME280;7866;52.280;9.500;2024-01-30T07:20:12;101373.75;;;4.43;90.48
15529;BME280;7866;52.280;9.500;2024-01-30T07:25:15;101364.72;;;4.33;90.30
15529;BME280;7866;52.280;9.500;2024-01-30T07:30:17;101369.38;;;4.42;91.37
15529;BME280;7866;52.280;9.500;2024-01-30T07:35:19;101364.72;;;4.45;90.77
15529;BME280;7866;52.280;9.500;2024-01-30T07:40:22;101355.19;;;4.43;91.28
15529;BME280;7866;52.280;9.500;2024-01-30T07:45:24;101366.97;;;4.64;91.44
15529;BME280;7866;52.280;9.500;2024-01-30T07:50:27;101362.81;;;4.86;90.64
15529;BME280;7866;52.280;9.500;2024-01-30T07:55:30;101359.22;;;4.87;90.22
15529;BME280;7866;52.280;9.500;2024-01-30T08:00:32;101354.97;;;4.97;89.47
15529;BME280;7866;52.280;9.500;2024-01-30T08:05:34;101351.03;;;5.03;90.30
15529;BME280;7866;52.280;9.500;2024-01-30T08:10:37;101349.53;;;5.11;90.18
15529;BME280;7866;52.280;9.500;2024-01-30T08:15:39;101352.03;;;5.26;88.28
15529;BME280;7866;52.280;9.500;2024-01-30T08:20:40;101362.03;;;5.35;89.60
15529;BME280;7866;52.280;9.500;2024-01-30T08:25:44;101355.28;;;5.42;88.80
15529;BME280;7866;52.280;9.500;2024-01-30T08:30:46;101361.72;;;5.63;89.11
15529;BME280;7866;52.280;9.500;2024-01-30T08:35:48;101364.88;;;6.16;92.35
15529;BME280;7866;52.280;9.500;2024-01-30T08:40:51;101355.09;;;6.97;90.60
15529;BME280;7866;52.280;9.500;2024-01-30T08:45:52;101354.81;;;7.45;90.56
15529;BME280;7866;52.280;9.500;2024-01-30T08:50:54;101354.22;;;7.53;86.68
15529;BME280;7866;52.280;9.500;2024-01-30T08:55:57;101338.94;;;7.66;88.39
15529;BME280;7866;52.280;9.500;2024-01-30T09:00:59;101334.09;;;7.60;87.48
15529;BME280;7866;52.280;9.500;2024-01-30T09:06:01;101333.13;;;7.50;86.75
15529;BME280;7866;52.280;9.500;2024-01-30T09:11:09;101332.25;;;7.60;85.69
15529;BME280;7866;52.280;9.500;2024-01-30T09:16:11;101323.28;;;7.94;87.19
15529;BME280;7866;52.280;9.500;2024-01-30T09:21:12;101331.47;;;8.34;85.35
15529;BME280;7866;52.280;9.500;2024-01-30T09:26:16;101316.25;;;8.67;83.66
15529;BME280;7866;52.280;9.500;2024-01-30T09:31:17;101327.03;;;8.86;83.12
15529;BME280;7866;52.280;9.500;2024-01-30T09:36:19;101340.47;;;8.75;83.51
15529;BME280;7866;52.280;9.500;2024-01-30T09:41:23;101345.00;;;8.84;83.46
15529;BME280;7866;52.280;9.500;2024-01-30T09:46:26;101347.19;;;9.00;83.19
15529;BME280;7866;52.280;9.500;2024-01-30T09:51:29;101354.38;;;9.09;82.46
15529;BME280;7866;52.280;9.500;2024-01-30T09:56:32;101350.25;;;9.35;82.06
15529;BME280;7866;52.280;9.500;2024-01-30T10:01:35;101335.13;;;9.55;80.95
15529;BME280;7866;52.280;9.500;2024-01-30T10:06:38;101325.56;;;9.62;80.96
15529;BME280;7866;52.280;9.500;2024-01-30T10:11:42;101329.53;;;9.78;80.14
15529;BME280;7866;52.280;9.500;2024-01-30T10:16:46;101327.53;;;9.80;79.65
15529;BME280;7866;52.280;9.500;2024-01-30T10:21:47;101314.31;;;9.78;79.37
15529;BME280;7866;52.280;9.500;2024-01-30T10:26:50;101311.63;;;9.98;78.86
15529;BME280;7866;52.280;9.500;2024-01-30T10:31:59;101299.09;;;10.08;77.51
15529;BME280;7866;52.280;9.500;2024-01-30T10:37:07;101304.88;;;9.94;78.24
15529;BME280;7866;52.280;9.500;2024-01-30T10:42:16;101306.81;;;10.01;77.80
15529;BME280;7866;52.280;9.500;2024-01-30T10:47:21;101303.16;;;10.22;78.14
15529;BME280;7866;52.280;9.500;2024-01-30T10:52:26;101305.53;;;10.44;77.43
15529;BME280;7866;52.280;9.500;2024-01-30T10:57:31;101312.44;;;10.37;78.10
15529;BME280;7866;52.280;9.500;2024-01-30T11:02:35;101317.66;;;10.48;77.52
15529;BME280;7866;52.280;9.500;2024-01-30T11:07:39;101308.06;;;10.55;77.36
15529;BME280;7866;52.280;9.500;2024-01-30T11:12:42;101301.13;;;10.63;77.12
15529;BME280;7866;52.280;9.500;2024-01-30T11:17:50;101301.50;;;10.77;76.79
15529;BME280;7866;52.280;9.500;2024-01-30T11:22:53;101299.78;;;10.76;77.89
15529;BME280;7866;52.280;9.500;2024-01-30T11:27:56;101287.25;;;10.77;77.20
15529;BME280;7866;52.280;9.500;2024-01-30T11:32:59;101298.63;;;10.89;76.96
15529;BME280;7866;52.280;9.500;2024-01-30T11:38:02;101292.84;;;10.93;76.52
15529;BME280;7866;52.280;9.500;2024-01-30T11:43:06;101289.56;;;10.99;76.54
15529;BME280;7866;52.280;9.500;2024-01-30T11:48:08;101268.28;;;10.98;77.10
15529;BME280;7866;52.280;9.500;2024-01-30T11:53:10;101264.31;;;11.20;76.47
15529;BME280;7866;52.280;9.500;2024-01-30T11:58:13;101257.44;;;11.35;76.29
15529;BME280;7866;52.280;9.500;2024-01-30T12:03:15;101232.84;;;11.40;75.63
15529;BME280;7866;52.280;9.500;2024-01-30T12:08:17;101235.41;;;11.41;76.10
15529;BME280;7866;52.280;9.500;2024-01-30T12:13:20;101236.09;;;11.43;75.79
15529;BME280;7866;52.280;9.500;2024-01-30T12:18:22;101263.06;;;11.42;75.84
15529;BME280;7866;52.280;9.500;2024-01-30T12:23:24;101275.31;;;11.44;75.69
15529;BME280;7866;52.280;9.500;2024-01-30T12:28:29;101276.63;;;11.58;76.08
15529;BME280;7866;52.280;9.500;2024-01-30T12:33:31;101284.84;;;11.74;75.32
15529;BME280;7866;52.280;9.500;2024-01-30T12:38:33;101277.63;;;11.93;75.05
15529;BME280;7866;52.280;9.500;2024-01-30T12:43:36;101289.44;;;12.00;74.57
15529;BME280;7866;52.280;9.500;2024-01-30T12:48:38;101288.84;;;11.88;75.34
15529;BME280;7866;52.280;9.500;2024-01-30T12:53:39;101285.19;;;11.89;74.58
15529;BME280;7866;52.280;9.500;2024-01-30T12:58:42;101293.53;;;11.86;75.34
15529;BME280;7866;52.280;9.500;2024-01-30T13:03:44;101294.44;;;11.95;74.87
15529;BME280;7866;52.280;9.500;2024-01-30T13:08:46;101303.88;;;11.81;75.42
15529;BME280;7866;52.280;9.500;2024-01-30T13:13:49;101302.25;;;11.70;75.55
15529;BME280;7866;52.280;9.500;2024-01-30T13:18:50;101311.91;;;11.63;76.00
15529;BME280;7866;52.280;9.500;2024-01-30T13:23:52;101304.47;;;11.57;76.50
15529;BME280;7866;52.280;9.500;2024-01-30T13:28:56;101310.59;;;11.49;76.65
15529;BME280;7866;52.280;9.500;2024-01-30T13:33:57;101307.91;;;11.49;77.22
15529;BME280;7866;52.280;9.500;2024-01-30T13:38:59;101314.97;;;11.50;77.17
15529;BME280;7866;52.280;9.500;2024-01-30T13:44:02;101321.00;;;11.52;77.39
15529;BME280;7866;52.280;9.500;2024-01-30T13:49:04;101311.56;;;11.48;77.12
15529;BME280;7866;52.280;9.500;2024-01-30T13:54:07;101317.78;;;11.49;77.56
15529;BME280;7866;52.280;9.500;2024-01-30T13:59:10;101317.84;;;11.39;77.64
15529;BME280;7866;52.280;9.500;2024-01-30T14:04:11;101314.31;;;11.39;78.02
15529;BME280;7866;52.280;9.500;2024-01-30T14:09:14;101324.03;;;11.40;77.83
15529;BME280;7866;52.280;9.500;2024-01-30T14:14:17;101321.91;;;11.43;78.16
15529;BME280;7866;52.280;9.500;2024-01-30T14:19:19;101308.03;;;11.48;78.55
15529;BME280;7866;52.280;9.500;2024-01-30T14:24:21;101321.44;;;11.48;78.34
15529;BME280;7866;52.280;9.500;2024-01-30T14:29:24;101316.94;;;11.48;78.34
15529;BME280;7866;52.280;9.500;2024-01-30T14:34:26;101323.47;;;11.46;78.91
15529;BME280;7866;52.280;9.500;2024-01-30T14:39:28;101310.50;;;11.41;78.68
15529;BME280;7866;52.280;9.500;2024-01-30T14:44:30;101318.00;;;11.38;79.04
15529;BME280;7866;52.280;9.500;2024-01-30T14:49:32;101319.31;;;11.33;79.34
15529;BME280;7866;52.280;9.500;2024-01-30T14:54:34;101311.28;;;11.24;79.88
15529;BME280;7866;52.280;9.500;2024-01-30T14:59:37;101326.44;;;11.15;79.91
15529;BME280;7866;52.280;9.500;2024-01-30T15:04:38;101322.47;;;11.19;80.31
15529;BME280;7866;52.280;9.500;2024-01-30T15:09:40;101328.53;;;11.21;80.18
15529;BME280;7866;52.280;9.500;2024-01-30T15:14:43;101335.03;;;11.19;80.61
15529;BME280;7866;52.280;9.500;2024-01-30T15:19:50;101335.13;;;11.27;81.50
15529;BME280;7866;52.280;9.500;2024-01-30T15:24:52;101338.38;;;11.30;81.82
15529;BME280;7866;52.280;9.500;2024-01-30T15:29:55;101342.28;;;11.36;81.36
15529;BME280;7866;52.280;9.500;2024-01-30T15:34:56;101352.25;;;11.44;82.15
15529;BME280;7866;52.280;9.500;2024-01-30T15:40:01;101352.81;;;11.47;81.57
15529;BME280;7866;52.280;9.500;2024-01-30T15:45:04;101350.22;;;11.55;81.48
15529;BME280;7866;52.280;9.500;2024-01-30T15:50:07;101359.25;;;11.54;81.45
15529;BME280;7866;52.280;9.500;2024-01-30T15:55:09;101367.16;;;11.56;81.90
15529;BME280;7866;52.280;9.500;2024-01-30T16:00:14;101360.31;;;11.44;81.97
15529;BME280;7866;52.280;9.500;2024-01-30T16:05:16;101368.59;;;11.50;82.66
15529;BME280;7866;52.280;9.500;2024-01-30T16:10:18;101370.84;;;11.55;82.85
15529;BME280;7866;52.280;9.500;2024-01-30T16:15:21;101376.91;;;11.57;82.40
15529;BME280;7866;52.280;9.500;2024-01-30T16:20:22;101376.38;;;11.53;81.98
15529;BME280;7866;52.280;9.500;2024-01-30T16:25:24;101380.47;;;11.48;82.70
15529;BME280;7866;52.280;9.500;2024-01-30T16:30:27;101377.25;;;11.44;83.52
15529;BME280;7866;52.280;9.500;2024-01-30T16:35:29;101392.75;;;11.50;82.79
15529;BME280;7866;52.280;9.500;2024-01-30T16:40:30;101384.44;;;11.44;82.85
15529;BME280;7866;52.280;9.500;2024-01-30T16:45:35;101391.50;;;11.45;82.92
15529;BME280;7866;52.280;9.500;2024-01-30T16:50:37;101402.09;;;11.46;83.00
15529;BME280;7866;52.280;9.500;2024-01-30T16:55:38;101399.31;;;11.38;82.92
15529;BME280;7866;52.280;9.500;2024-01-30T17:00:41;101409.66;;;11.33;82.35
15529;BME280;7866;52.280;9.500;2024-01-30T17:05:43;101408.09;;;11.30;83.45
15529;BME280;7866;52.280;9.500;2024-01-30T17:10:45;101406.41;;;11.29;83.61
15529;BME280;7866;52.280;9.500;2024-01-30T17:15:47;101399.78;;;11.24;83.28
15529;BME280;7866;52.280;9.500;2024-01-30T17:20:49;101404.84;;;11.27;84.58
15529;BME280;7866;52.280;9.500;2024-01-30T17:25:51;101407.53;;;11.27;84.89
15529;BME280;7866;52.280;9.500;2024-01-30T17:30:54;101413.25;;;11.14;83.55
15529;BME280;7866;52.280;9.500;2024-01-30T17:35:56;101417.47;;;11.07;84.36
15529;BME280;7866;52.280;9.500;2024-01-30T17:40:57;101420.94;;;11.27;84.70
15529;BME280;7866;52.280;9.500;2024-01-30T17:46:01;101418.03;;;11.48;84.93
15529;BME280;7866;52.280;9.500;2024-01-30T17:51:04;101411.53;;;11.50;83.63
15529;BME280;7866;52.280;9.500;2024-01-30T17:56:06;101419.06;;;11.65;84.28
15529;BME280;7866;52.280;9.500;2024-01-30T18:01:12;101426.44;;;11.63;84.40
15529;BME280;7866;52.280;9.500;2024-01-30T18:06:14;101439.84;;;11.63;84.09
15529;BME280;7866;52.280;9.500;2024-01-30T18:11:16;101464.28;;;11.59;83.88
15529;BME280;7866;52.280;9.500;2024-01-30T18:16:19;101466.88;;;11.51;82.82
15529;BME280;7866;52.280;9.500;2024-01-30T18:21:22;101474.97;;;11.42;78.79
15529;BME280;7866;52.280;9.500;2024-01-30T18:26:23;101462.63;;;11.12;76.56
15529;BME280;7866;52.280;9.500;2024-01-30T18:31:27;101467.47;;;10.98;76.88
15529;BME280;7866;52.280;9.500;2024-01-30T18:36:29;101477.78;;;10.83;76.91
15529;BME280;7866;52.280;9.500;2024-01-30T18:41:30;101478.59;;;10.84;75.68
15529;BME280;7866;52.280;9.500;2024-01-30T18:46:33;101507.25;;;10.74;75.60
15529;BME280;7866;52.280;9.500;2024-01-30T18:51:36;101505.56;;;10.53;76.00
15529;BME280;7866;52.280;9.500;2024-01-30T18:56:37;101512.16;;;10.40;76.62
15529;BME280;7866;52.280;9.500;2024-01-30T19:01:40;101512.03;;;10.31;77.32
15529;BME280;7866;52.280;9.500;2024-01-30T19:06:42;101522.22;;;10.17;78.00
15529;BME280;7866;52.280;9.500;2024-01-30T19:11:44;101532.09;;;10.06;78.57
15529;BME280;7866;52.280;9.500;2024-01-30T19:16:47;101523.16;;;9.96;78.66
15529;BME280;7866;52.280;9.500;2024-01-30T19:21:48;101523.44;;;9.93;78.21
15529;BME280;7866;52.280;9.500;2024-01-30T19:26:50;101521.00;;;9.80;78.74
15529;BME280;7866;52.280;9.500;2024-01-30T19:31:53;101533.59;;;9.90;78.35
15529;BME280;7866;52.280;9.500;2024-01-30T19:36:55;101530.00;;;9.79;78.02
15529;BME280;7866;52.280;9.500;2024-01-30T19:41:57;101535.34;;;9.70;78.09
15529;BME280;7866;52.280;9.500;2024-01-30T19:47:00;101531.97;;;9.77;77.25
15529;BME280;7866;52.280;9.500;2024-01-30T19:52:04;101545.75;;;9.73;77.26
15529;BME280;7866;52.280;9.500;2024-01-30T19:57:07;101553.34;;;9.68;77.33
15529;BME280;7866;52.280;9.500;2024-01-30T20:02:11;101559.16;;;9.52;78.14
15529;BME280;7866;52.280;9.500;2024-01-30T20:07:19;101549.31;;;9.52;78.37
15529;BME280;7866;52.280;9.500;2024-01-30T20:12:21;101548.78;;;9.58;77.86
15529;BME280;7866;52.280;9.500;2024-01-30T20:17:24;101555.91;;;9.48;79.18
15529;BME280;7866;52.280;9.500;2024-01-30T20:22:25;101569.03;;;9.51;78.76
15529;BME280;7866;52.280;9.500;2024-01-30T20:27:27;101572.69;;;9.50;78.73
15529;BME280;7866;52.280;9.500;2024-01-30T20:32:30;101566.16;;;9.43;79.69
15529;BME280;7866;52.280;9.500;2024-01-30T20:37:32;101588.00;;;9.48;80.08
15529;BME280;7866;52.280;9.500;2024-01-30T20:42:34;101598.25;;;9.43;80.88
15529;BME280;7866;52.280;9.500;2024-01-30T20:47:37;101605.28;;;9.44;81.45
15529;BME280;7866;52.280;9.500;2024-01-30T20:52:38;101615.66;;;9.37;81.13
15529;BME280;7866;52.280;9.500;2024-01-30T20:57:40;101626.88;;;9.31;83.47
15529;BME280;7866;52.280;9.500;2024-01-30T21:02:43;101622.53;;;9.19;85.68
15529;BME280;7866;52.280;9.500;2024-01-30T21:07:45;101625.88;;;9.11;86.92
15529;BME280;7866;52.280;9.500;2024-01-30T21:12:46;101619.91;;;9.08;87.45
15529;BME280;7866;52.280;9.500;2024-01-30T21:17:49;101637.63;;;9.09;86.97
15529;BME280;7866;52.280;9.500;2024-01-30T21:22:52;101630.13;;;9.14;86.43
15529;BME280;7866;52.280;9.500;2024-01-30T21:27:54;101641.75;;;9.13;87.30
15529;BME280;7866;52.280;9.500;2024-01-30T21:32:57;101636.19;;;9.05;88.23
15529;BME280;7866;52.280;9.500;2024-01-30T21:38:00;101647.25;;;9.11;87.30
15529;BME280;7866;52.280;9.500;2024-01-30T21:43:03;101653.69;;;9.09;87.65
15529;BME280;7866;52.280;9.500;2024-01-30T21:48:07;101658.69;;;9.02;88.08
15529;BME280;7866;52.280;9.500;2024-01-30T21:53:09;101648.66;;;8.95;88.16
15529;BME280;7866;52.280;9.500;2024-01-30T21:58:10;101659.19;;;8.96;88.06
15529;BME280;7866;52.280;9.500;2024-01-30T22:03:13;101663.69;;;8.96;88.11
15529;BME280;7866;52.280;9.500;2024-01-30T22:08:15;101670.63;;;8.98;87.63
15529;BME280;7866;52.280;9.500;2024-01-30T22:13:17;101670.41;;;8.90;88.04
15529;BME280;7866;52.280;9.500;2024-01-30T22:18:21;101679.38;;;8.89;89.07
15529;BME280;7866;52.280;9.500;2024-01-30T22:23:23;101697.84;;;8.81;90.17
15529;BME280;7866;52.280;9.500;2024-01-30T22:28:24;101696.06;;;8.70;91.46
15529;BME280;7866;52.280;9.500;2024-01-30T22:33:27;101702.00;;;8.62;92.79
15529;BME280;7866;52.280;9.500;2024-01-30T22:38:29;101705.16;;;8.45;94.87
15529;BME280;7866;52.280;9.500;2024-01-30T22:43:31;101722.13;;;8.33;98.06
15529;BME280;7866;52.280;9.500;2024-01-30T22:48:35;101731.94;;;8.21;98.95
15529;BME280;7866;52.280;9.500;2024-01-30T22:53:36;101749.00;;;7.96;100.00
15529;BME280;7866;52.280;9.500;2024-01-30T22:58:38;101760.38;;;7.87;100.00
15529;BME280;7866;52.280;9.500;2024-01-30T23:03:41;101760.19;;;7.77;100.00
15529;BME280;7866;52.280;9.500;2024-01-30T23:08:42;101772.59;;;7.78;100.00
15529;BME280;7866;52.280;9.500;2024-01-30T23:13:44;101767.25;;;7.78;100.00
15529;BME280;7866;52.280;9.500;2024-01-30T23:18:47;101774.38;;;7.78;100.00
15529;BME280;7866;52.280;9.500;2024-01-30T23:23:50;101783.34;;;7.77;100.00
15529;BME280;7866;52.280;9.500;2024-01-30T23:28:51;101783.72;;;7.72;99.88
15529;BME280;7866;52.280;9.500;2024-01-30T23:33:54;101787.97;;;7.75;99.92
15529;BME280;7866;52.280;9.500;2024-01-30T23:38:56;101786.50;;;7.71;100.00
15529;BME280;7866;52.280;9.500;2024-01-30T23:43:57;101785.97;;;7.65;99.43
15529;BME280;7866;52.280;9.500;2024-01-30T23:49:00;101791.72;;;7.72;99.65
15529;BME280;7866;52.280;9.500;2024-01-30T23:54:04;101799.84;;;7.71;99.18
15529;BME280;7866;52.280;9.500;2024-01-30T23:59:06;101802.72;;;7.68;98.85
